Time;durP1;ratioP1;P1;durP2;ratioP2;P2;SDS_P1;SDS_P2;PMS_P1;PMS_P2;Temp;Humidity;BMP_temperature;BMP_pressure;BME280_temperature;BME280_humidity;BME280_pressure;Samples;Min_cycle;Max_cycle;Signal;HPM_P1;HPM_P2
2023/01/10 00:02:14;;;;;;;16.33;2.80;;;6.70;99.90;;;;;;5053579;28;20025;-71
2023/01/10 00:04:39;;;;;;;10.52;2.08;;;6.70;99.90;;;;;;5052899;28;20118;-71
2023/01/10 00:07:05;;;;;;;16.38;2.50;;;6.70;99.90;;;;;;5053443;28;20021;-72
2023/01/10 00:09:30;;;;;;;12.15;2.58;;;6.80;99.90;;;;;;5053381;28;20381;-71
2023/01/10 00:14:40;;;;;;;17.02;2.78;;;6.70;99.90;;;;;;5053244;28;20108;-71
2023/01/10 00:17:06;;;;;;;13.13;2.00;;;6.70;99.90;;;;;;5039665;28;20017;-71
2023/01/10 00:19:31;;;;;;;18.63;3.22;;;6.70;99.90;;;;;;5052810;28;20491;-71
2023/01/10 00:22:01;;;;;;;9.90;2.40;;;6.70;99.90;;;;;;5053412;28;20100;-71
2023/01/10 00:24:27;;;;;;;14.90;2.63;;;6.70;99.90;;;;;;5053403;28;20037;-71
2023/01/10 00:26:53;;;;;;;23.25;2.90;;;6.60;99.90;;;;;;5052468;28;20028;-71
2023/01/10 00:29:21;;;;;;;9.65;2.35;;;6.60;99.90;;;;;;5053484;28;20414;-71
2023/01/10 00:31:47;;;;;;;14.80;2.30;;;6.60;99.90;;;;;;5052588;28;20133;-71
2023/01/10 00:34:13;;;;;;;10.10;2.25;;;6.60;99.90;;;;;;5052102;28;20491;-71
2023/01/10 00:36:39;;;;;;;13.23;2.47;;;6.60;99.90;;;;;;5053292;28;20025;-71
2023/01/10 00:39:05;;;;;;;24.77;3.83;;;6.70;99.90;;;;;;5052917;28;20031;-71
2023/01/10 00:44:15;;;;;;;13.10;2.78;;;6.70;99.90;;;;;;5039159;28;20114;-71
2023/01/10 00:46:41;;;;;;;16.95;2.55;;;6.80;99.90;;;;;;5052894;28;20072;-72
2023/01/10 00:49:10;;;;;;;19.73;2.90;;;6.80;99.90;;;;;;5052033;28;20029;-71
2023/01/10 00:51:39;;;;;;;17.95;2.60;;;6.90;99.90;;;;;;5052847;28;20484;-71
2023/01/10 00:54:05;;;;;;;22.77;3.67;;;7.00;99.90;;;;;;5051947;28;20136;-71
2023/01/10 00:56:30;;;;;;;14.48;2.53;;;6.90;99.90;;;;;;5052807;28;20102;-71
2023/01/10 00:58:56;;;;;;;21.27;3.60;;;7.00;99.90;;;;;;5052474;28;20025;-72
2023/01/10 01:01:21;;;;;;;14.55;2.83;;;7.00;99.90;;;;;;5052073;28;20013;-71
2023/01/10 01:03:47;;;;;;;11.60;2.58;;;7.00;99.90;;;;;;5052852;28;20128;-70
2023/01/10 01:06:12;;;;;;;12.80;2.38;;;7.00;99.90;;;;;;5052095;28;20028;-71
2023/01/10 01:08:38;;;;;;;24.33;3.85;;;7.00;99.90;;;;;;5052030;28;20053;-71
2023/01/10 01:11:04;;;;;;;21.45;3.22;;;7.00;99.90;;;;;;5052141;28;20028;-70
2023/01/10 01:13:29;;;;;;;14.02;2.83;;;7.00;99.90;;;;;;5052546;28;20479;-71
2023/01/10 01:15:59;;;;;;;19.38;2.67;;;7.10;99.90;;;;;;5041040;28;20025;-70
2023/01/10 01:18:26;;;;;;;20.08;3.63;;;7.10;99.90;;;;;;5049258;28;20025;-71
2023/01/10 01:20:56;;;;;;;14.27;3.00;;;7.00;99.90;;;;;;5051826;28;20139;-71
2023/01/10 01:23:22;;;;;;;;;;;7.00;99.90;;;;;;5052205;28;20415;-71
2023/01/10 01:25:52;;;;;;;22.55;2.78;;;7.00;99.90;;;;;;5052278;28;20007;-70
2023/01/10 01:28:18;;;;;;;15.93;2.92;;;7.00;99.90;;;;;;5052316;28;20029;-70
2023/01/10 01:30:44;;;;;;;20.95;2.88;;;7.00;99.90;;;;;;5051627;28;20045;-71
2023/01/10 01:33:10;;;;;;;20.08;3.15;;;7.00;99.90;;;;;;5052031;28;20035;-71
2023/01/10 01:35:36;;;;;;;19.70;3.35;;;7.00;99.90;;;;;;5052142;28;20028;-71
2023/01/10 01:38:01;;;;;;;21.25;2.90;;;7.00;99.90;;;;;;5051290;28;20036;-71
2023/01/10 01:40:27;;;;;;;24.10;3.58;;;7.00;99.90;;;;;;5051967;28;20025;-71
2023/01/10 01:42:54;;;;;;;15.85;3.35;;;6.90;99.90;;;;;;5051721;28;20409;-71
2023/01/10 01:45:23;;;;;;;16.17;2.85;;;6.90;99.90;;;;;;5051169;28;20112;-71
2023/01/10 01:48:00;;;;;;;22.90;3.15;;;7.00;99.90;;;;;;5052236;28;20028;-71
2023/01/10 01:50:35;;;;;;;20.02;3.05;;;7.00;99.90;;;;;;5050693;28;20033;-72
2023/01/10 01:53:07;;;;;;;16.73;3.15;;;7.00;99.90;;;;;;5051924;28;20059;-71
2023/01/10 01:55:34;;;;;;;20.13;3.63;;;7.20;99.90;;;;;;5052130;28;20036;-70
2023/01/10 01:58:05;;;;;;;17.25;2.33;;;7.20;99.90;;;;;;5051036;28;20147;-71
2023/01/10 02:00:30;;;;;;;20.05;3.67;;;7.30;99.90;;;;;;5052288;28;20037;-70
2023/01/10 02:02:58;;;;;;;28.60;3.45;;;7.40;99.90;;;;;;5051418;28;20491;-71
2023/01/10 02:05:24;;;;;;;22.63;5.18;;;7.40;99.90;;;;;;5051437;28;20025;-71
2023/01/10 02:07:58;;;;;;;13.70;2.13;;;7.50;99.90;;;;;;5051296;28;20017;-71
2023/01/10 02:10:34;;;;;;;24.33;3.25;;;7.70;99.90;;;;;;5040727;28;20036;-72
2023/01/10 02:13:04;;;;;;;28.00;3.28;;;7.80;99.90;;;;;;5049330;28;20057;-71
2023/01/10 02:15:30;;;;;;;26.05;3.47;;;7.80;99.90;;;;;;5044399;28;20021;-71
2023/01/10 02:17:57;;;;;;;16.95;2.38;;;7.80;99.90;;;;;;5044760;28;20036;-71
2023/01/10 02:20:23;;;;;;;17.95;3.20;;;7.80;99.90;;;;;;5050677;28;20043;-71
2023/01/10 02:22:52;;;;;;;16.85;4.05;;;7.90;99.90;;;;;;5054915;28;20385;-71
2023/01/10 02:25:51;;;;;;;17.25;3.22;;;7.80;99.90;;;;;;5054996;28;20472;-71
2023/01/10 02:28:38;;;;;;;25.85;4.15;;;7.80;99.90;;;;;;5055896;28;20033;-71
2023/01/10 02:31:21;;;;;;;32.55;4.70;;;7.80;99.90;;;;;;5055357;28;20052;-72
2023/01/10 02:34:19;;;;;;;26.17;3.28;;;7.80;99.90;;;;;;5040705;28;20101;-71
2023/01/10 02:37:12;;;;;;;23.20;4.68;;;7.70;99.90;;;;;;5055627;28;20044;-72
2023/01/10 02:39:49;;;;;;;20.02;3.38;;;7.70;99.90;;;;;;5055576;28;20121;-71
2023/01/10 02:42:26;;;;;;;19.75;2.88;;;7.70;99.90;;;;;;5055709;28;20023;-70
2023/01/10 02:45:08;;;;;;;26.08;4.10;;;7.80;99.90;;;;;;5055036;28;20134;-72
2023/01/10 02:47:40;;;;;;;17.05;3.08;;;7.70;99.90;;;;;;5054999;28;20025;-72
2023/01/10 02:50:28;;;;;;;22.77;3.10;;;7.70;99.90;;;;;;5055953;28;20024;-71
2023/01/10 02:52:57;;;;;;;19.30;3.38;;;7.80;99.90;;;;;;5042522;28;20334;-75
2023/01/10 02:55:34;;;;;;;23.65;3.55;;;7.90;99.90;;;;;;5037379;28;20029;-72
2023/01/10 02:58:32;;;;;;;29.15;3.92;;;7.90;99.90;;;;;;5052577;28;20059;-71
2023/01/10 03:01:18;;;;;;;26.08;3.80;;;7.80;99.90;;;;;;5046711;28;20518;-71
2023/01/10 03:04:02;;;;;;;26.20;4.63;;;7.80;99.90;;;;;;5040755;28;20029;-71
2023/01/10 03:06:44;;;;;;;19.63;2.63;;;7.70;99.90;;;;;;5054992;28;20036;-72
2023/01/10 03:09:25;;;;;;;27.75;3.60;;;7.70;99.90;;;;;;5054312;28;20032;-72
2023/01/10 03:11:58;;;;;;;21.20;3.92;;;7.60;99.90;;;;;;5043813;28;20026;-71
2023/01/10 03:14:27;;;;;;;20.52;3.30;;;7.70;99.90;;;;;;5052773;28;20021;-72
2023/01/10 03:16:58;;;;;;;16.33;2.63;;;7.70;99.90;;;;;;5054016;28;20025;-71
2023/01/10 03:19:29;;;;;;;20.42;2.85;;;7.70;99.90;;;;;;5055056;28;20025;-71
2023/01/10 03:21:58;;;;;;;16.75;2.28;;;7.70;99.90;;;;;;5054093;28;20083;-71
2023/01/10 03:24:45;;;;;;;19.52;3.97;;;7.80;99.90;;;;;;5054519;28;20106;-71
2023/01/10 03:27:18;;;;;;;25.38;3.53;;;7.80;99.90;;;;;;5054179;28;20117;-74
2023/01/10 03:30:05;;;;;;;26.80;3.72;;;7.80;99.90;;;;;;5039923;28;20032;-73
2023/01/10 03:32:31;;;;;;;18.52;2.85;;;7.70;99.90;;;;;;5054548;28;20409;-72
2023/01/10 03:34:59;;;;;;;20.23;2.95;;;7.80;99.90;;;;;;5054241;28;20024;-71
2023/01/10 03:37:43;;;;;;;17.33;2.88;;;7.70;99.90;;;;;;5053712;28;20037;-72
2023/01/10 03:40:54;;;;;;;26.95;3.78;;;7.80;99.90;;;;;;5053875;28;20018;-72
2023/01/10 03:47:04;;;;;;;30.17;3.58;;;7.70;99.90;;;;;;5054195;28;20031;-71
2023/01/10 03:49:32;;;;;;;14.63;2.92;;;7.60;99.90;;;;;;5054302;28;20017;-71
2023/01/10 03:51:59;;;;;;;25.08;4.47;;;7.50;99.90;;;;;;5053185;28;20025;-72
2023/01/10 03:54:25;;;;;;;22.45;3.80;;;7.40;99.90;;;;;;5054468;28;20032;-72
2023/01/10 03:56:51;;;;;;;20.92;3.42;;;7.30;99.90;;;;;;5053230;28;20020;-72
2023/01/10 03:59:29;;;;;;;23.52;3.92;;;7.20;99.90;;;;;;5054370;28;20473;-72
2023/01/10 04:01:55;;;;;;;32.45;4.00;;;7.20;99.90;;;;;;5052331;28;20032;-71
2023/01/10 04:04:20;;;;;;;24.85;4.10;;;7.20;99.90;;;;;;5040967;28;20033;-72
2023/01/10 04:06:49;;;;;;;22.55;3.92;;;7.10;99.90;;;;;;5054573;28;20021;-71
2023/01/10 04:09:15;;;;;;;16.48;3.28;;;7.00;99.90;;;;;;5054304;28;20684;-72
2023/01/10 04:11:40;;;;;;;18.08;3.78;;;6.90;99.90;;;;;;5054286;28;20033;-72
2023/01/10 04:14:06;;;;;;;16.42;3.35;;;6.90;99.90;;;;;;5053946;28;20025;-70
2023/01/10 04:16:31;;;;;;;17.33;3.40;;;6.90;99.90;;;;;;5053913;28;20079;-72
2023/01/10 04:18:57;;;;;;;19.15;4.43;;;6.80;99.90;;;;;;5052617;28;20025;-72
2023/01/10 04:21:22;;;;;;;24.48;3.42;;;6.70;99.90;;;;;;5053527;28;20025;-71
2023/01/10 04:23:48;;;;;;;23.88;3.85;;;6.60;99.90;;;;;;5053904;28;20040;-72
2023/01/10 04:26:14;;;;;;;29.02;3.92;;;6.50;99.90;;;;;;5052737;28;20338;-73
2023/01/10 04:28:39;;;;;;;21.60;3.60;;;6.60;99.90;;;;;;5053671;28;20108;-72
2023/01/10 04:31:05;;;;;;;29.63;3.78;;;6.70;99.90;;;;;;5052807;28;20091;-72
2023/01/10 04:33:31;;;;;;;21.52;4.00;;;6.70;99.90;;;;;;5052680;28;20040;-72
2023/01/10 04:35:56;;;;;;;23.92;4.00;;;6.70;99.90;;;;;;5053069;28;20025;-71
2023/01/10 04:38:22;;;;;;;21.65;4.72;;;6.70;99.90;;;;;;5053339;28;20361;-69
2023/01/10 04:40:52;;;;;;;18.90;3.58;;;6.70;99.90;;;;;;5052376;28;20036;-71
2023/01/10 04:43:18;;;;;;;29.42;5.13;;;6.60;99.90;;;;;;5053170;28;20378;-71
2023/01/10 04:45:43;;;;;;;20.70;3.22;;;6.50;99.90;;;;;;5052456;28;20078;-72
2023/01/10 04:48:09;;;;;;;19.20;3.08;;;6.60;99.90;;;;;;5052031;28;20070;-72
2023/01/10 04:50:35;;;;;;;23.83;4.00;;;6.60;99.90;;;;;;5052364;28;20056;-72
2023/01/10 04:53:00;;;;;;;28.88;3.90;;;6.50;99.90;;;;;;5052588;28;20024;-72
2023/01/10 04:55:26;;;;;;;29.92;3.25;;;6.40;99.90;;;;;;5052869;28;20020;-72
2023/01/10 04:57:51;;;;;;;22.60;4.03;;;6.30;99.90;;;;;;5052909;28;20370;-72
2023/01/10 05:00:17;;;;;;;16.15;3.28;;;6.40;99.90;;;;;;5052256;28;20017;-71
2023/01/10 05:02:43;;;;;;;27.92;4.53;;;6.30;99.90;;;;;;5044568;28;20425;-72
2023/01/10 05:05:14;;;;;;;32.05;3.72;;;6.30;99.90;;;;;;5047134;28;20087;-72
2023/01/10 05:07:40;;;;;;;28.10;5.25;;;6.40;99.90;;;;;;5052479;28;20021;-71
2023/01/10 05:10:07;;;;;;;23.83;2.90;;;6.40;99.90;;;;;;5052573;28;20075;-72
2023/01/10 05:12:33;;;;;;;22.17;4.15;;;6.40;99.90;;;;;;5052817;28;20067;-71
2023/01/10 05:14:58;;;;;;;18.77;2.70;;;6.40;99.90;;;;;;5051077;28;20048;-71
2023/01/10 05:17:24;;;;;;;30.13;4.25;;;6.40;99.90;;;;;;5038514;28;20060;-72
2023/01/10 05:19:50;;;;;;;27.17;5.00;;;6.30;99.90;;;;;;5031015;28;20558;-72
2023/01/10 05:22:15;;;;;;;19.85;3.60;;;6.20;99.90;;;;;;5031303;28;20037;-72
2023/01/10 05:24:41;;;;;;;23.65;3.78;;;6.10;99.90;;;;;;5033954;28;20401;-71
2023/01/10 05:27:06;;;;;;;31.45;4.72;;;6.10;99.90;;;;;;5031258;28;20026;-71
2023/01/10 05:29:33;;;;;;;23.75;3.60;;;6.10;99.90;;;;;;5030823;28;20060;-73
2023/01/10 05:31:58;;;;;;;26.23;3.90;;;6.10;99.90;;;;;;5031000;28;20379;-72
2023/01/10 05:34:24;;;;;;;29.77;3.88;;;6.10;99.90;;;;;;5036049;28;20032;-72
2023/01/10 05:36:50;;;;;;;30.27;3.78;;;6.20;99.90;;;;;;5033828;28;20036;-71
2023/01/10 05:39:15;;;;;;;25.77;3.75;;;6.20;99.90;;;;;;5033818;28;20020;-72
2023/01/10 05:41:41;;;;;;;31.98;4.65;;;6.20;99.90;;;;;;5031560;28;20102;-71
2023/01/10 05:44:07;;;;;;;25.05;4.20;;;6.10;99.90;;;;;;5030539;28;20497;-71
2023/01/10 05:46:33;;;;;;;32.78;3.53;;;6.10;99.90;;;;;;5034616;28;20022;-72
2023/01/10 05:48:58;;;;;;;20.58;4.15;;;6.20;99.90;;;;;;5038199;28;20077;-72
2023/01/10 05:51:24;;;;;;;21.00;3.85;;;6.30;99.90;;;;;;5036669;28;20112;-72
2023/01/10 05:53:50;;;;;;;30.20;4.28;;;6.30;99.90;;;;;;5032513;28;20033;-73
2023/01/10 05:56:16;;;;;;;31.27;4.28;;;6.40;99.90;;;;;;5032640;28;20017;-71
2023/01/10 05:58:41;;;;;;;30.70;4.25;;;6.50;99.90;;;;;;5045202;28;20033;-70
2023/01/10 06:01:08;;;;;;;28.63;4.57;;;6.50;99.90;;;;;;5033667;28;20047;-72
2023/01/10 06:03:33;;;;;;;16.80;3.05;;;6.50;99.90;;;;;;5039864;28;20504;-72
2023/01/10 06:05:59;;;;;;;31.30;4.18;;;6.60;99.90;;;;;;5051229;28;20021;-72
2023/01/10 06:08:25;;;;;;;29.40;5.35;;;6.70;99.90;;;;;;5052764;28;20396;-72
2023/01/10 06:10:51;;;;;;;22.00;3.88;;;6.80;99.90;;;;;;5045911;28;20025;-72
2023/01/10 06:13:16;;;;;;;28.08;5.03;;;6.80;99.90;;;;;;5036914;28;20021;-73
2023/01/10 06:15:42;;;;;;;20.45;3.30;;;6.70;99.90;;;;;;5032231;28;20121;-73
2023/01/10 06:18:08;;;;;;;24.80;4.28;;;6.70;99.90;;;;;;5031656;28;20501;-73
2023/01/10 06:20:34;;;;;;;28.95;5.22;;;6.70;99.90;;;;;;5032800;28;20021;-72
2023/01/10 06:23:03;;;;;;;34.00;4.95;;;6.60;99.90;;;;;;5031329;28;20094;-73
2023/01/10 06:25:29;;;;;;;24.35;4.45;;;6.60;99.90;;;;;;5031730;28;20474;-73
2023/01/10 06:27:55;;;;;;;35.40;4.97;;;6.40;99.90;;;;;;5037827;28;20018;-73
2023/01/10 06:30:21;;;;;;;26.73;4.05;;;6.40;99.90;;;;;;5031847;28;20026;-74
2023/01/10 06:32:46;;;;;;;27.88;4.35;;;6.40;99.90;;;;;;5036866;28;20022;-73
2023/01/10 06:35:12;;;;;;;32.80;5.18;;;6.40;99.90;;;;;;5031089;28;20080;-73
2023/01/10 06:37:38;;;;;;;28.95;4.45;;;6.40;99.90;;;;;;5032113;28;20517;-73
2023/01/10 06:40:04;;;;;;;22.45;4.60;;;6.30;99.90;;;;;;5030923;28;20030;-74
2023/01/10 06:42:30;;;;;;;31.23;3.78;;;6.20;99.90;;;;;;5032126;28;20026;-73
2023/01/10 06:44:55;;;;;;;27.02;5.88;;;6.20;99.90;;;;;;5031656;28;20029;-72
2023/01/10 06:47:21;;;;;;;38.58;4.75;;;6.20;99.90;;;;;;5038781;28;20071;-72
2023/01/10 06:49:47;;;;;;;25.38;4.45;;;6.20;99.90;;;;;;5032618;28;20025;-73
2023/01/10 06:52:12;;;;;;;24.65;3.72;;;6.10;99.90;;;;;;5031678;28;20020;-73
2023/01/10 06:54:40;;;;;;;27.23;4.10;;;6.00;99.90;;;;;;5030753;28;20108;-73
2023/01/10 06:57:06;;;;;;;32.83;4.82;;;5.90;99.90;;;;;;5031279;28;20041;-73
2023/01/10 06:59:32;;;;;;;26.45;4.07;;;5.90;99.90;;;;;;5030888;28;20649;-72
2023/01/10 07:01:57;;;;;;;31.52;4.53;;;5.80;99.90;;;;;;5030309;28;20120;-73
2023/01/10 07:04:23;;;;;;;26.65;4.93;;;5.80;99.90;;;;;;5039290;28;20120;-73
2023/01/10 07:06:48;;;;;;;28.30;4.57;;;5.60;99.90;;;;;;5051146;28;20404;-73
2023/01/10 07:09:14;;;;;;;29.85;4.78;;;5.60;99.90;;;;;;5054654;28;20025;-72
2023/01/10 07:11:40;;;;;;;35.33;5.35;;;5.70;99.90;;;;;;5055273;28;20381;-72
2023/01/10 07:14:05;;;;;;;34.70;5.38;;;5.80;99.90;;;;;;5053890;28;20021;-71
2023/01/10 07:16:31;;;;;;;27.02;4.43;;;5.90;99.90;;;;;;5054975;28;20025;-73
2023/01/10 07:18:58;;;;;;;40.20;5.53;;;5.90;99.90;;;;;;5054795;28;20097;-73
2023/01/10 07:21:23;;;;;;;31.13;5.63;;;6.00;99.90;;;;;;5054264;28;20063;-73
2023/01/10 07:23:49;;;;;;;31.80;5.05;;;6.10;99.90;;;;;;5055028;28;20072;-72
2023/01/10 07:26:17;;;;;;;30.17;6.25;;;6.10;99.90;;;;;;5054429;28;20021;-72
2023/01/10 07:28:44;;;;;;;29.17;5.15;;;6.10;99.90;;;;;;5052875;28;20500;-72
2023/01/10 07:31:10;;;;;;;31.20;6.43;;;6.10;99.90;;;;;;5054208;28;20127;-72
2023/01/10 07:33:36;;;;;;;24.70;5.15;;;6.00;99.90;;;;;;5054731;28;20116;-73
2023/01/10 07:36:02;;;;;;;30.35;5.55;;;6.00;99.90;;;;;;5053615;28;20025;-73
2023/01/10 07:38:28;;;;;;;29.73;6.85;;;5.90;99.90;;;;;;5054613;28;20473;-73
2023/01/10 07:40:53;;;;;;;33.35;5.85;;;5.90;99.90;;;;;;5054121;28;20029;-73
2023/01/10 07:43:19;;;;;;;26.00;5.63;;;5.90;99.90;;;;;;5052782;28;20060;-74
2023/01/10 07:45:45;;;;;;;39.05;5.85;;;6.00;99.90;;;;;;5050837;28;20143;-75
2023/01/10 07:48:10;;;;;;;40.55;5.97;;;6.00;99.90;;;;;;5046045;28;20026;-74
2023/01/10 07:50:39;;;;;;;29.50;5.72;;;6.00;99.90;;;;;;5049197;28;20028;-74
2023/01/10 07:53:06;;;;;;;27.48;5.47;;;6.10;99.90;;;;;;5037425;28;20033;-73
2023/01/10 07:55:34;;;;;;;27.70;6.28;;;6.10;99.90;;;;;;5034054;28;20033;-74
2023/01/10 07:58:00;;;;;;;30.17;5.32;;;6.20;99.90;;;;;;5033654;28;20116;-72
2023/01/10 08:00:26;;;;;;;26.75;5.82;;;6.20;99.90;;;;;;5034891;28;20068;-73
2023/01/10 08:02:53;;;;;;;26.65;5.40;;;6.20;99.90;;;;;;5042680;28;20031;-74
2023/01/10 08:05:19;;;;;;;21.48;4.80;;;6.20;99.90;;;;;;5041455;28;20120;-74
2023/01/10 08:07:45;;;;;;;33.25;8.13;;;6.20;99.90;;;;;;5053925;28;20219;-73
2023/01/10 08:10:11;;;;;;;33.15;7.70;;;6.20;99.90;;;;;;5045039;28;20478;-73
2023/01/10 08:12:36;;;;;;;25.25;5.40;;;6.10;99.90;;;;;;5045369;28;20045;-76
2023/01/10 08:15:02;;;;;;;35.33;6.47;;;6.10;99.90;;;;;;5050066;28;20437;-73
2023/01/10 08:17:28;;;;;;;28.27;4.85;;;6.10;99.90;;;;;;5047630;28;20112;-74
2023/01/10 08:19:53;;;;;;;35.40;6.80;;;6.10;99.90;;;;;;5040694;28;20105;-74
2023/01/10 08:22:19;;;;;;;29.45;5.65;;;6.00;99.90;;;;;;5032223;28;20149;-74
2023/01/10 08:24:44;;;;;;;25.70;5.55;;;6.10;99.90;;;;;;5031723;28;20550;-74
2023/01/10 08:27:10;;;;;;;30.77;5.88;;;6.10;99.90;;;;;;5033395;28;20029;-73
2023/01/10 08:29:35;;;;;;;30.40;5.63;;;6.10;99.90;;;;;;5034076;28;20045;-73
2023/01/10 08:32:01;;;;;;;28.50;6.68;;;6.10;99.90;;;;;;5033434;28;20449;-72
2023/01/10 08:34:27;;;;;;;37.60;6.10;;;6.10;99.90;;;;;;5033795;28;20029;-73
2023/01/10 08:36:53;;;;;;;29.45;6.40;;;6.10;99.90;;;;;;5032933;28;20022;-73
2023/01/10 08:39:25;;;;;;;32.58;6.05;;;6.10;99.90;;;;;;5032389;28;20028;-73
2023/01/10 08:41:51;;;;;;;23.50;5.63;;;6.10;99.90;;;;;;5039252;28;20381;-73
2023/01/10 08:44:16;;;;;;;33.90;6.43;;;6.10;99.90;;;;;;5031882;28;20041;-73
2023/01/10 08:46:42;;;;;;;31.90;6.28;;;6.10;99.90;;;;;;5031140;28;20029;-70
2023/01/10 08:49:08;;;;;;;42.03;7.78;;;6.10;99.90;;;;;;5035858;28;20013;-72
2023/01/10 08:51:33;;;;;;;30.58;5.35;;;6.10;99.90;;;;;;5050863;28;20028;-73
2023/01/10 08:53:59;;;;;;;53.92;8.23;;;6.10;99.90;;;;;;5039128;28;20066;-72
2023/01/10 08:56:25;;;;;;;35.65;5.95;;;6.10;99.90;;;;;;5053057;28;20104;-69
2023/01/10 08:58:50;;;;;;;28.83;5.55;;;6.10;99.90;;;;;;5047660;28;20381;-70
2023/01/10 09:01:16;;;;;;;27.35;5.85;;;6.20;99.90;;;;;;5048791;28;20028;-72
2023/01/10 09:03:42;;;;;;;40.80;5.72;;;6.20;99.90;;;;;;5039502;28;20044;-74
2023/01/10 09:06:08;;;;;;;41.50;6.05;;;6.20;99.90;;;;;;5042082;28;20527;-73
2023/01/10 09:08:34;;;;;;;30.80;6.22;;;6.20;99.90;;;;;;5045498;28;20390;-73
2023/01/10 09:11:01;;;;;;;23.48;5.38;;;6.20;99.90;;;;;;5032647;28;20060;-73
2023/01/10 09:13:28;;;;;;;35.25;6.20;;;6.20;99.90;;;;;;5043047;28;20035;-74
2023/01/10 09:15:54;;;;;;;29.50;5.05;;;6.20;99.90;;;;;;5032984;28;20091;-74
2023/01/10 09:18:20;;;;;;;23.17;4.80;;;6.20;99.90;;;;;;5046214;28;20059;-74
2023/01/10 09:20:45;;;;;;;26.27;5.10;;;6.30;99.90;;;;;;5035835;28;20025;-74
2023/01/10 09:23:16;;;;;;;35.35;6.35;;;6.30;99.90;;;;;;5044099;28;20039;-74
2023/01/10 09:25:42;;;;;;;;;;;6.80;99.90;;;;;;5051662;28;20039;-74
2023/01/10 09:28:08;;;;;;;25.73;4.60;;;6.40;99.90;;;;;;5052232;28;19931;-73
2023/01/10 09:30:34;;;;;;;26.02;4.95;;;6.40;99.90;;;;;;5036957;28;20041;-74
2023/01/10 09:33:00;;;;;;;30.02;4.80;;;6.40;99.90;;;;;;5033292;28;20177;-74
2023/01/10 09:35:28;;;;;;;23.95;4.03;;;6.40;99.90;;;;;;5031299;28;20089;-74
2023/01/10 09:38:02;;;;;;;23.17;5.03;;;6.40;99.90;;;;;;5038350;28;20021;-74
2023/01/10 09:40:34;;;;;;;29.38;4.95;;;6.40;99.90;;;;;;5039575;28;20113;-73
2023/01/10 09:43:04;;;;;;;23.52;5.47;;;6.40;99.90;;;;;;5031445;28;20381;-72
2023/01/10 09:45:36;;;;;;;21.80;5.60;;;6.40;99.90;;;;;;5033001;28;20025;-73
2023/01/10 09:48:08;;;;;;;28.38;5.03;;;6.40;99.90;;;;;;5031397;28;20427;-73
2023/01/10 09:50:46;;;;;;;23.77;4.53;;;6.40;99.90;;;;;;5030455;28;20087;-74
2023/01/10 09:53:20;;;;;;;26.50;4.93;;;6.50;99.90;;;;;;5033912;28;20020;-74
2023/01/10 09:55:52;;;;;;;26.33;5.43;;;6.50;99.90;;;;;;5030696;28;20487;-74
2023/01/10 09:58:19;;;;;;;25.02;4.97;;;6.50;99.90;;;;;;5032316;28;20025;-74
2023/01/10 10:01:09;;;;;;;24.02;4.07;;;6.50;99.90;;;;;;5047196;28;20021;-74
2023/01/10 10:04:01;;;;;;;32.70;4.93;;;6.50;99.90;;;;;;5031844;28;20108;-74
2023/01/10 10:06:29;;;;;;;29.45;4.63;;;6.50;99.90;;;;;;5048330;28;20037;-75
2023/01/10 10:08:56;;;;;;;23.30;3.75;;;6.50;99.90;;;;;;5052098;28;20048;-75
2023/01/10 10:11:24;;;;;;;23.08;4.53;;;6.70;99.90;;;;;;5050702;28;20017;-74
2023/01/10 10:14:14;;;;;;;21.00;4.13;;;6.50;99.90;;;;;;5044048;28;20029;-74
2023/01/10 10:17:01;;;;;;;19.97;4.43;;;6.60;99.90;;;;;;5031607;28;20385;-74
2023/01/10 10:19:41;;;;;;;20.80;4.15;;;6.60;99.90;;;;;;5039687;28;20061;-75
2023/01/10 10:22:16;;;;;;;32.78;4.78;;;6.50;99.90;;;;;;5032211;28;20120;-73
2023/01/10 10:25:01;;;;;;;26.10;4.10;;;6.50;99.90;;;;;;5031970;28;20041;-73
2023/01/10 10:27:45;;;;;;;19.40;3.65;;;6.50;99.90;;;;;;5031926;28;20022;-73
2023/01/10 10:30:42;;;;;;;25.63;4.07;;;6.60;99.90;;;;;;5030172;28;20125;-74
2023/01/10 10:33:18;;;;;;;20.92;3.67;;;6.60;99.90;;;;;;5032802;28;20026;-75
2023/01/10 10:35:52;;;;;;;24.02;4.28;;;6.60;99.90;;;;;;5032572;28;20028;-73
2023/01/10 10:38:31;;;;;;;22.27;3.78;;;6.70;99.90;;;;;;5032154;28;20404;-74
2023/01/10 10:41:00;;;;;;;18.92;4.68;;;6.60;99.90;;;;;;5033000;28;20076;-76
2023/01/10 10:43:38;;;;;;;17.80;3.33;;;6.70;99.90;;;;;;5034783;28;20108;-76
2023/01/10 10:46:13;;;;;;;21.90;4.03;;;6.70;99.90;;;;;;5036252;28;20060;-74
2023/01/10 10:48:55;;;;;;;21.63;3.90;;;6.70;99.90;;;;;;5037251;28;20029;-74
2023/01/10 10:51:26;;;;;;;25.23;4.43;;;6.70;99.90;;;;;;5040305;28;20525;-75
2023/01/10 10:53:54;;;;;;;25.55;4.97;;;6.80;99.90;;;;;;5035379;28;20053;-75
2023/01/10 10:56:23;;;;;;;20.33;4.05;;;6.80;99.90;;;;;;5034806;28;20030;-75
2023/01/10 10:58:54;;;;;;;18.15;4.38;;;6.90;99.90;;;;;;5040581;28;20546;-74
2023/01/10 11:01:20;;;;;;;23.77;4.45;;;6.80;99.90;;;;;;5045221;28;20032;-76
2023/01/10 11:03:50;;;;;;;20.85;4.05;;;6.90;99.90;;;;;;5040965;28;20032;-75
2023/01/10 11:06:18;;;;;;;20.75;3.33;;;6.90;99.90;;;;;;5054140;28;20017;-74
2023/01/10 11:08:46;;;;;;;25.20;4.07;;;6.90;99.90;;;;;;5054676;28;20105;-74
2023/01/10 11:11:23;;;;;;;17.75;5.30;;;6.90;99.90;;;;;;5055120;28;20076;-75
2023/01/10 11:14:00;;;;;;;22.50;4.55;;;6.90;99.90;;;;;;5054870;28;20017;-75
2023/01/10 11:16:29;;;;;;;25.88;3.95;;;6.90;99.90;;;;;;5056340;28;20028;-75
2023/01/10 11:19:09;;;;;;;12.73;3.05;;;6.90;99.90;;;;;;5053674;28;20021;-75
2023/01/10 11:21:35;;;;;;;30.65;4.68;;;6.90;99.90;;;;;;5035416;28;20049;-75
2023/01/10 11:24:01;;;;;;;25.48;5.10;;;7.10;99.90;;;;;;5041193;28;20064;-73
2023/01/10 11:26:39;;;;;;;29.67;4.30;;;7.90;99.90;;;;;;5038029;28;20047;-73
2023/01/10 11:29:15;;;;;;;24.42;4.03;;;7.10;99.90;;;;;;5054266;28;20368;-74
2023/01/10 11:31:41;;;;;;;22.85;4.32;;;7.10;99.90;;;;;;5051668;28;20562;-74
2023/01/10 11:34:30;;;;;;;19.95;3.58;;;7.00;99.90;;;;;;5053469;28;20032;-74
2023/01/10 11:37:02;;;;;;;20.52;4.30;;;7.20;99.90;;;;;;5049834;28;20037;-73
2023/01/10 11:39:29;;;;;;;18.50;4.18;;;7.10;99.90;;;;;;5057826;28;20075;-71
2023/01/10 11:41:57;;;;;;;24.58;4.35;;;7.10;99.90;;;;;;5054645;28;20064;-74
2023/01/10 11:44:29;;;;;;;18.23;3.85;;;7.20;99.90;;;;;;5050079;28;20045;-73
2023/01/10 11:47:02;;;;;;;11.55;2.70;;;7.20;99.90;;;;;;5054784;28;20025;-74
2023/01/10 11:49:33;;;;;;;27.90;4.72;;;7.20;99.90;;;;;;5054190;28;20429;-74
2023/01/10 11:52:12;;;;;;;15.25;4.05;;;7.20;99.90;;;;;;5050148;28;20104;-73
2023/01/10 11:54:40;;;;;;;18.40;3.72;;;7.50;99.90;;;;;;5033882;28;20495;-73
2023/01/10 11:57:14;;;;;;;28.50;3.70;;;7.20;99.90;;;;;;5033790;28;20492;-73
2023/01/10 11:59:54;;;;;;;20.35;4.10;;;7.20;99.90;;;;;;5034465;28;20373;-74
2023/01/10 12:02:27;;;;;;;25.45;4.30;;;7.20;99.90;;;;;;5033843;28;20051;-73
2023/01/10 12:04:55;;;;;;;20.85;3.40;;;7.20;99.90;;;;;;5046027;28;20385;-74
2023/01/10 12:07:24;;;;;;;18.63;3.65;;;7.20;99.90;;;;;;5053861;28;20020;-74
2023/01/10 12:09:55;;;;;;;19.88;3.65;;;7.20;99.90;;;;;;5052819;28;20036;-74
2023/01/10 12:12:33;;;;;;;20.10;4.25;;;7.20;99.90;;;;;;5053766;28;20457;-74
2023/01/10 12:15:20;;;;;;;20.45;3.55;;;7.20;99.90;;;;;;5053541;28;20025;-74
2023/01/10 12:17:46;;;;;;;12.00;3.30;;;7.20;99.90;;;;;;5047984;28;20031;-73
2023/01/10 12:20:13;;;;;;;18.42;4.15;;;7.30;99.90;;;;;;5032990;28;20450;-74
2023/01/10 12:22:50;;;;;;;21.52;4.80;;;7.30;99.90;;;;;;5049280;28;20086;-73
2023/01/10 12:25:24;;;;;;;19.80;3.92;;;7.30;99.90;;;;;;5038603;28;20040;-74
2023/01/10 12:27:50;;;;;;;21.35;3.92;;;7.30;99.90;;;;;;5038282;28;20029;-75
2023/01/10 12:30:30;;;;;;;21.58;3.90;;;7.30;99.90;;;;;;5032044;28;20036;-74
2023/01/10 12:32:59;;;;;;;18.00;3.35;;;7.30;99.90;;;;;;5033583;28;20040;-73
2023/01/10 12:35:42;;;;;;;20.55;4.45;;;7.40;99.90;;;;;;5035712;28;20038;-74
2023/01/10 12:44:15;;;;;;;21.88;3.67;;;7.50;99.90;;;;;;5033882;28;20048;-74
2023/01/10 12:46:49;;;;;;;17.40;4.10;;;7.50;99.90;;;;;;5034595;28;20566;-74
2023/01/10 12:49:31;;;;;;;20.60;3.50;;;7.50;99.90;;;;;;5037580;28;20078;-74
2023/01/10 12:52:08;;;;;;;20.88;4.07;;;7.60;99.90;;;;;;5040751;28;20426;-74
2023/01/10 12:54:34;;;;;;;17.83;4.22;;;7.60;99.90;;;;;;5033340;28;20048;-74
2023/01/10 12:57:05;;;;;;;20.17;4.50;;;7.60;99.90;;;;;;5033127;28;20018;-74
2023/01/10 12:59:49;;;;;;;24.63;4.47;;;7.60;99.90;;;;;;5032256;28;20025;-74
2023/01/10 13:02:21;;;;;;;24.40;4.35;;;7.70;99.90;;;;;;5033604;28;20117;-73
2023/01/10 13:04:55;;;;;;;18.40;3.83;;;7.70;99.90;;;;;;5043928;28;20033;-75
2023/01/10 13:07:27;;;;;;;27.70;3.85;;;7.70;99.90;;;;;;5052440;28;20026;-73
2023/01/10 13:09:53;;;;;;;23.05;4.20;;;7.70;99.90;;;;;;5052961;28;20064;-74
2023/01/10 13:12:34;;;;;;;17.20;3.28;;;7.80;99.90;;;;;;5052101;28;20048;-73
2023/01/10 13:15:33;;;;;;;15.48;3.33;;;7.80;99.90;;;;;;5052683;28;20054;-74
2023/01/10 13:18:21;;;;;;;29.55;4.43;;;7.80;99.90;;;;;;5052460;28;20032;-73